Time;durP1;ratioP1;P1;durP2;ratioP2;P2;SDS_P1;SDS_P2;PMS_P1;PMS_P2;Temp;Humidity;BMP_temperature;BMP_pressure;BME280_temperature;BME280_humidity;BME280_pressure;Samples;Min_cycle;Max_cycle;Signal;HPM_P1;HPM_P2
2021/04/14 00:00:26;;;;;;;1.98;0.43;;;;;;;10.68;55.32;101824.38;4961468;28;127945;-60
2021/04/14 00:02:53;;;;;;;2.25;0.50;;;;;;;10.66;55.81;101821.94;4962016;28;97855;-62
2021/04/14 00:05:21;;;;;;;2.65;0.40;;;;;;;10.64;55.95;101818.63;4962074;28;99481;-63
2021/04/14 00:07:47;;;;;;;2.25;0.40;;;;;;;10.67;55.19;101814.66;4941913;28;105048;-59
2021/04/14 00:10:18;;;;;;;2.28;0.40;;;;;;;10.63;55.38;101813.47;4961249;28;102846;-59
2021/04/14 00:12:44;;;;;;;1.55;0.30;;;;;;;10.59;55.39;101813.13;4962566;28;102544;-59
2021/04/14 00:15:15;;;;;;;1.75;0.30;;;;;;;10.56;55.79;101813.59;4961149;28;126398;-62
2021/04/14 00:17:41;;;;;;;2.47;0.40;;;;;;;10.54;55.80;101813.03;4958629;28;98350;-62
2021/04/14 00:20:10;;;;;;;2.30;0.40;;;;;;;10.54;55.57;101815.72;4961729;28;118052;-59
2021/04/14 00:22:36;;;;;;;1.73;0.40;;;;;;;10.55;55.45;101818.16;4959224;28;98131;-62
2021/04/14 00:25:02;;;;;;;2.60;0.60;;;;;;;10.43;56.13;101814.66;4942343;28;99154;-60
2021/04/14 00:27:28;;;;;;;2.42;0.50;;;;;;;10.44;55.59;101818.16;4943798;28;101890;-59
2021/04/14 00:29:54;;;;;;;2.72;0.65;;;;;;;10.45;55.95;101822.50;4940943;28;127626;-59
2021/04/14 00:32:21;;;;;;;1.83;0.50;;;;;;;10.43;55.49;101819.22;4951518;28;112766;-59
2021/04/14 00:34:47;;;;;;;2.08;0.57;;;;;;;10.41;55.89;101810.53;4945455;28;127855;-62
2021/04/14 00:37:13;;;;;;;1.90;0.43;;;;;;;10.41;55.67;101810.53;4941914;28;126297;-62
2021/04/14 00:39:39;;;;;;;3.13;0.60;;;;;;;10.32;55.75;101812.75;4943131;28;98115;-63
2021/04/14 00:42:05;;;;;;;2.15;0.47;;;;;;;10.36;55.43;101805.84;4943056;28;112567;-62
2021/04/14 00:44:31;;;;;;;2.20;0.55;;;;;;;10.36;55.41;101807.72;4942336;28;100211;-62
2021/04/14 00:46:57;;;;;;;2.05;0.43;;;;;;;10.32;55.68;101810.88;4942279;28;127688;-59
2021/04/14 00:49:23;;;;;;;2.40;0.40;;;;;;;10.32;55.67;101808.19;4941688;28;126158;-62
2021/04/14 00:51:49;;;;;;;1.92;0.50;;;;;;;10.30;55.60;101806.81;4941305;28;103022;-62
2021/04/14 00:54:15;;;;;;;1.50;0.40;;;;;;;10.25;55.96;101814.75;4940856;28;99582;-60
2021/04/14 00:56:41;;;;;;;2.20;0.50;;;;;;;10.26;55.81;101802.94;4945791;28;120893;-59
2021/04/14 00:59:08;;;;;;;2.30;0.40;;;;;;;10.18;55.86;101811.28;4961106;28;128304;-62
2021/04/14 01:01:34;;;;;;;2.00;0.50;;;;;;;10.18;55.77;101814.84;4957349;28;98053;-59
2021/04/14 01:04:00;;;;;;;2.25;0.30;;;;;;;10.21;56.01;101818.91;4942118;28;126837;-59
2021/04/14 01:06:28;;;;;;;1.33;0.43;;;;;;;10.17;56.31;101815.06;4941680;28;126932;-59
2021/04/14 01:08:55;;;;;;;1.60;0.35;;;;;;;10.11;55.62;101816.81;4925067;28;98012;-59
2021/04/14 01:11:22;;;;;;;2.55;0.50;;;;;;;10.09;55.49;101821.59;4926067;28;98176;-59
2021/04/14 01:13:48;;;;;;;1.02;0.30;;;;;;;10.12;56.16;101812.25;4952547;28;106761;-62
2021/04/14 01:16:14;;;;;;;2.42;0.30;;;;;;;10.11;56.48;101819.50;4940916;28;112778;-63
2021/04/14 01:18:41;;;;;;;1.50;0.30;;;;;;;10.13;56.41;101817.38;4956454;28;112851;-59
2021/04/14 01:21:22;;;;;;;1.63;0.40;;;;;;;10.09;56.33;101813.50;4952576;28;97918;-62
2021/04/14 01:23:48;;;;;;;1.83;0.30;;;;;;;10.07;55.74;101813.75;4962887;28;98359;-59
2021/04/14 01:26:14;;;;;;;1.83;0.40;;;;;;;10.09;56.08;101816.22;4929029;28;128070;-59
2021/04/14 01:28:42;;;;;;;2.15;0.40;;;;;;;10.06;56.32;101814.81;4964371;28;98287;-62
2021/04/14 01:31:11;;;;;;;1.80;0.40;;;;;;;10.05;56.21;101817.72;4965318;28;97990;-62
2021/04/14 01:33:37;;;;;;;2.88;0.57;;;;;;;10.01;56.34;101820.06;4965909;28;98587;-64
2021/04/14 01:36:05;;;;;;;1.80;0.40;;;;;;;10.00;55.93;101818.41;4963499;28;98639;-59
2021/04/14 01:38:31;;;;;;;1.48;0.40;;;;;;;9.97;55.89;101824.25;4964879;28;97939;-59
2021/04/14 01:40:58;;;;;;;1.38;0.30;;;;;;;9.97;55.85;101818.88;4965240;28;98289;-62
2021/04/14 01:43:24;;;;;;;1.77;0.35;;;;;;;9.92;56.42;101815.25;4964782;28;98472;-60
2021/04/14 01:45:50;;;;;;;1.25;0.30;;;;;;;9.94;56.11;101818.50;4963812;28;126674;-61
2021/04/14 01:48:17;;;;;;;1.30;0.30;;;;;;;9.91;56.23;101824.38;4964500;28;127572;-62
2021/04/14 01:50:43;;;;;;;2.42;0.40;;;;;;;9.94;56.40;101818.50;4963298;28;97969;-59
2021/04/14 01:53:11;;;;;;;1.65;0.30;;;;;;;9.90;56.32;101817.31;4948437;28;100726;-64
2021/04/14 01:55:38;;;;;;;2.17;0.30;;;;;;;9.91;56.24;101821.69;4945349;28;98262;-59
2021/04/14 01:58:04;;;;;;;1.40;0.30;;;;;;;9.89;56.17;101821.09;4961152;28;126170;-62
2021/04/14 02:00:41;;;;;;;1.23;0.35;;;;;;;9.86;56.89;101819.66;4951453;28;97743;-62
2021/04/14 02:03:08;;;;;;;2.42;0.40;;;;;;;9.85;56.11;101823.41;4944472;28;98791;-59
2021/04/14 02:05:34;;;;;;;1.30;0.30;;;;;;;9.86;56.10;101818.84;4944787;28;102197;-59
2021/04/14 02:08:01;;;;;;;1.27;0.25;;;;;;;9.81;56.64;101809.59;4943885;28;125284;-63
2021/04/14 02:10:29;;;;;;;2.58;0.35;;;;;;;9.81;56.13;101812.28;4942579;28;101516;-62
2021/04/14 02:12:56;;;;;;;2.25;0.50;;;;;;;9.78;56.09;101807.34;4945635;28;101114;-62
2021/04/14 02:15:28;;;;;;;1.65;0.30;;;;;;;9.77;56.36;101818.34;4944575;28;98663;-59
2021/04/14 02:17:55;;;;;;;1.50;0.40;;;;;;;9.76;56.23;101808.63;4945104;28;101037;-62
2021/04/14 02:20:21;;;;;;;2.13;0.30;;;;;;;9.74;56.51;101811.53;4959440;28;98324;-63
2021/04/14 02:22:48;;;;;;;1.63;0.40;;;;;;;9.73;56.55;101809.09;4965195;28;98490;-62
2021/04/14 02:25:15;;;;;;;1.55;0.32;;;;;;;9.68;56.20;101808.97;4959498;28;99060;-59
2021/04/14 02:27:41;;;;;;;1.55;0.30;;;;;;;9.70;56.45;101804.97;4948718;28;98227;-59
2021/04/14 02:30:10;;;;;;;2.30;0.40;;;;;;;9.68;56.84;101815.16;4944129;28;113791;-62
2021/04/14 02:32:36;;;;;;;1.38;0.30;;;;;;;9.69;56.72;101802.53;4944264;28;98213;-63
2021/04/14 02:35:03;;;;;;;1.92;0.30;;;;;;;9.68;56.33;101811.66;4943131;28;127619;-59
2021/04/14 02:37:29;;;;;;;1.98;0.22;;;;;;;9.63;56.20;101814.19;4945326;28;113970;-62
2021/04/14 02:39:55;;;;;;;1.35;0.30;;;;;;;9.62;56.55;101813.38;4944093;28;97964;-62
2021/04/14 02:42:21;;;;;;;1.75;0.30;;;;;;;9.62;56.20;101816.06;4944726;28;98908;-59
2021/04/14 02:44:47;;;;;;;2.33;0.40;;;;;;;9.60;56.58;101810.09;4944129;28;128141;-62
2021/04/14 02:47:13;;;;;;;1.38;0.35;;;;;;;9.58;56.28;101813.00;4925614;28;124949;-59
2021/04/14 02:49:39;;;;;;;2.30;0.30;;;;;;;9.60;56.61;101812.78;4943710;28;113304;-62
2021/04/14 02:52:06;;;;;;;2.13;0.38;;;;;;;9.59;56.76;101808.47;4946798;28;128836;-62
2021/04/14 02:54:32;;;;;;;1.30;0.30;;;;;;;9.58;56.78;101809.50;4951449;28;115176;-62
2021/04/14 02:56:58;;;;;;;2.08;0.30;;;;;;;9.55;56.54;101818.88;4942989;28;127315;-59
2021/04/14 02:59:24;;;;;;;1.83;0.30;;;;;;;9.55;56.59;101821.56;4943155;28;108115;-62
2021/04/14 03:01:50;;;;;;;3.00;0.40;;;;;;;9.52;56.31;101816.63;4943337;28;127884;-59
2021/04/14 03:04:17;;;;;;;1.58;0.30;;;;;;;9.49;57.11;101824.34;4941818;28;98179;-60
2021/04/14 03:06:43;;;;;;;1.98;0.47;;;;;;;9.50;56.61;101815.19;4931759;28;98059;-62
2021/04/14 03:09:09;;;;;;;1.88;0.38;;;;;;;9.44;56.87;101818.81;4944636;28;97765;-59
2021/04/14 03:11:36;;;;;;;2.40;0.28;;;;;;;9.36;56.33;101822.63;4943274;28;127056;-62
2021/04/14 03:14:02;;;;;;;2.47;0.43;;;;;;;9.37;56.61;101818.91;4944146;28;98710;-59
2021/04/14 03:16:28;;;;;;;2.42;0.40;;;;;;;9.34;56.59;101817.47;4943071;28;128346;-59
2021/04/14 03:18:54;;;;;;;2.03;0.40;;;;;;;9.34;56.49;101816.66;4944253;28;105059;-63
2021/04/14 03:21:21;;;;;;;1.80;0.45;;;;;;;9.30;56.51;101818.97;4941118;28;128587;-62
2021/04/14 03:23:47;;;;;;;2.78;0.30;;;;;;;9.30;56.53;101816.28;4943318;28;129057;-62
2021/04/14 03:26:13;;;;;;;2.50;0.40;;;;;;;9.30;56.50;101815.47;4951813;28;125533;-62
2021/04/14 03:28:39;;;;;;;1.90;0.50;;;;;;;9.26;56.24;101820.47;4944999;28;97943;-62
2021/04/14 03:31:05;;;;;;;2.58;0.40;;;;;;;9.24;56.50;101814.50;4941738;28;127912;-59
2021/04/14 03:33:31;;;;;;;1.67;0.40;;;;;;;9.24;56.15;101819.06;4943790;28;99107;-59
2021/04/14 03:35:57;;;;;;;2.33;0.40;;;;;;;9.23;56.66;101823.59;4943552;28;128331;-59
2021/04/14 03:38:23;;;;;;;2.47;0.47;;;;;;;9.21;56.54;101823.03;4943612;28;111243;-59
2021/04/14 03:40:49;;;;;;;1.95;0.40;;;;;;;9.17;56.87;101823.69;4941031;28;127844;-59
2021/04/14 03:43:15;;;;;;;2.65;0.50;;;;;;;9.16;56.65;101830.13;4928155;28;106289;-62
2021/04/14 03:45:44;;;;;;;1.92;0.40;;;;;;;9.16;56.72;101822.06;4960706;28;98607;-59
2021/04/14 03:48:10;;;;;;;1.33;0.40;;;;;;;9.14;56.28;101824.97;4957039;28;97661;-62
2021/04/14 03:50:37;;;;;;;1.85;0.38;;;;;;;9.14;56.28;101826.84;4941547;28;98295;-62
2021/04/14 03:53:16;;;;;;;2.17;0.40;;;;;;;9.07;56.72;101830.41;4958645;28;98240;-62
2021/04/14 03:55:42;;;;;;;2.05;0.47;;;;;;;9.10;57.04;101829.97;4962328;28;98453;-62
2021/04/14 03:58:08;;;;;;;1.58;0.40;;;;;;;9.07;56.72;101830.41;4962778;28;109848;-63
2021/04/14 04:00:35;;;;;;;2.40;0.40;;;;;;;9.03;56.66;101831.91;4961751;28;99482;-62
2021/04/14 04:03:01;;;;;;;1.83;0.47;;;;;;;9.04;56.75;101830.88;4948568;28;99142;-62
2021/04/14 04:05:27;;;;;;;3.20;0.60;;;;;;;9.03;56.48;101825.72;4940540;28;115498;-62
2021/04/14 04:07:53;;;;;;;1.60;0.30;;;;;;;9.01;56.54;101833.19;4943073;28;113603;-62
2021/04/14 04:10:19;;;;;;;3.70;0.63;;;;;;;9.02;56.81;101832.97;4942352;28;126683;-62
2021/04/14 04:12:45;;;;;;;3.10;0.52;;;;;;;9.00;56.93;101836.91;4956337;28;99208;-60
2021/04/14 04:15:13;;;;;;;2.92;0.57;;;;;;;9.00;56.34;101843.13;4961825;28;97944;-58
2021/04/14 04:17:39;;;;;;;2.40;0.40;;;;;;;9.01;56.55;101841.25;4963998;28;97733;-63
2021/04/14 04:20:08;;;;;;;1.65;0.50;;;;;;;8.99;56.49;101846.84;4945282;28;98534;-59
2021/04/14 04:22:34;;;;;;;2.95;0.40;;;;;;;8.99;56.29;101852.22;4944231;28;113792;-62
2021/04/14 04:25:00;;;;;;;2.28;0.40;;;;;;;9.00;56.23;101847.66;4942646;28;98206;-59
2021/04/14 04:27:26;;;;;;;3.03;0.50;;;;;;;9.02;56.07;101850.97;4942779;28;98073;-62
2021/04/14 04:29:52;;;;;;;1.85;0.35;;;;;;;9.02;56.20;101845.59;4942178;28;114025;-59
2021/04/14 04:32:18;;;;;;;2.53;0.47;;;;;;;9.04;56.17;101846.19;4945617;28;126601;-62
2021/04/14 04:34:44;;;;;;;1.60;0.40;;;;;;;9.02;56.51;101846.41;4939720;28;127855;-59
2021/04/14 04:37:10;;;;;;;1.80;0.45;;;;;;;9.07;56.46;101853.78;4941670;28;112823;-62
2021/04/14 04:39:36;;;;;;;2.00;0.60;;;;;;;9.07;56.04;101843.84;4941996;28;127595;-62
2021/04/14 04:42:02;;;;;;;2.25;0.40;;;;;;;9.13;56.41;101844.03;4942182;28;114910;-59
2021/04/14 04:44:28;;;;;;;1.27;0.38;;;;;;;9.14;55.96;101849.19;4954403;28;112993;-62
2021/04/14 04:46:54;;;;;;;3.00;0.50;;;;;;;9.14;56.27;101849.19;4962434;28;113171;-59
2021/04/14 04:49:20;;;;;;;1.95;0.40;;;;;;;9.18;55.82;101853.06;4959549;28;128579;-63
2021/04/14 04:51:46;;;;;;;2.85;0.50;;;;;;;9.19;56.02;101852.00;4960912;28;118247;-59
2021/04/14 04:54:12;;;;;;;4.00;0.57;;;;;;;9.24;56.31;101852.19;4943735;28;127233;-59
2021/04/14 04:56:38;;;;;;;2.55;0.60;;;;;;;9.27;56.20;101857.09;4963602;28;98054;-62
2021/04/14 04:59:04;;;;;;;2.55;0.43;;;;;;;9.34;56.70;101852.44;4948248;28;127978;-62
2021/04/14 05:01:31;;;;;;;2.92;0.55;;;;;;;9.37;56.71;101850.38;4945415;28;104246;-59
2021/04/14 05:03:57;;;;;;;1.85;0.52;;;;;;;9.38;56.46;101852.81;4945679;28;98308;-62
2021/04/14 05:06:23;;;;;;;1.55;0.47;;;;;;;9.47;57.16;101854.19;4944102;28;98088;-59
2021/04/14 05:08:49;;;;;;;2.70;0.43;;;;;;;9.51;57.05;101855.38;4945504;28;127212;-59
2021/04/14 05:11:15;;;;;;;1.70;0.40;;;;;;;9.55;56.63;101859.25;4945847;28;98393;-62
2021/04/14 05:13:41;;;;;;;3.10;0.50;;;;;;;9.57;56.76;101859.00;4945061;28;126434;-59
2021/04/14 05:16:07;;;;;;;2.35;0.52;;;;;;;9.61;56.72;101856.69;4928236;28;99118;-59
2021/04/14 05:18:35;;;;;;;2.80;0.50;;;;;;;9.63;57.06;101858.13;4944759;28;126814;-60
2021/04/14 05:21:02;;;;;;;2.00;0.43;;;;;;;9.69;56.96;101867.97;4945189;28;99210;-62
2021/04/14 05:23:29;;;;;;;2.13;0.50;;;;;;;9.72;57.11;101855.94;4960140;28;98464;-59
2021/04/14 05:25:56;;;;;;;3.45;0.52;;;;;;;9.80;56.81;101861.00;4952477;28;97975;-59
2021/04/14 05:28:24;;;;;;;3.33;0.45;;;;;;;9.82;57.41;101872.34;4965011;28;98004;-62
2021/04/14 05:30:50;;;;;;;3.67;0.50;;;;;;;9.92;56.92;101861.03;4964536;28;98064;-59
2021/04/14 05:33:16;;;;;;;5.22;0.60;;;;;;;9.98;57.39;101863.66;4963686;28;121512;-59
2021/04/14 05:35:42;;;;;;;3.83;0.75;;;;;;;9.98;56.90;101863.66;4965819;28;98103;-59
2021/04/14 05:38:09;;;;;;;1.85;0.40;;;;;;;10.04;57.23;101862.72;4961507;28;126222;-62
2021/04/14 05:40:35;;;;;;;2.95;0.60;;;;;;;10.14;57.30;101869.41;4964134;28;101376;-62
2021/04/14 05:43:24;;;;;;;3.05;0.57;;;;;;;10.18;57.09;101874.13;4964789;28;98147;-60
2021/04/14 05:46:01;;;;;;;3.47;0.60;;;;;;;10.24;56.84;101877.75;4945229;28;97889;-62
2021/04/14 05:48:27;;;;;;;3.17;0.57;;;;;;;10.35;56.44;101874.31;4948704;28;99027;-59
2021/04/14 05:50:55;;;;;;;3.35;0.73;;;;;;;10.41;57.41;101872.53;4944981;28;98501;-59
2021/04/14 05:53:21;;;;;;;2.10;0.60;;;;;;;10.45;56.51;101871.00;4945925;28;98512;-62
2021/04/14 05:55:48;;;;;;;2.78;0.60;;;;;;;10.44;57.61;101874.78;4944596;28;112954;-61
2021/04/14 05:58:14;;;;;;;3.15;0.70;;;;;;;10.51;57.11;101880.88;4962284;28;98133;-59
2021/04/14 06:00:40;;;;;;;2.60;0.65;;;;;;;10.55;57.33;101873.97;4964163;28;127833;-62
2021/04/14 06:03:06;;;;;;;3.30;0.75;;;;;;;10.64;56.50;101872.56;4963658;28;127210;-62
2021/04/14 06:05:32;;;;;;;2.95;0.80;;;;;;;10.72;57.12;101874.09;4962895;28;112482;-62
2021/04/14 06:07:58;;;;;;;3.00;0.63;;;;;;;10.81;56.72;101870.81;4964068;28;98926;-62
2021/04/14 06:10:24;;;;;;;2.92;0.60;;;;;;;10.89;56.06;101869.66;4964172;28;126815;-59
2021/04/14 06:12:52;;;;;;;3.38;0.70;;;;;;;10.97;55.63;101868.47;4963132;28;125959;-62
2021/04/14 06:15:31;;;;;;;2.35;0.50;;;;;;;11.17;55.80;101866.22;4978467;28;97907;-59
2021/04/14 06:17:58;;;;;;;2.92;0.70;;;;;;;11.24;56.26;101869.63;4962751;28;98324;-62
2021/04/14 06:20:25;;;;;;;3.63;0.60;;;;;;;11.32;56.23;101876.53;4963926;28;98394;-63
2021/04/14 06:22:52;;;;;;;2.08;0.60;;;;;;;11.43;56.26;101874.84;4946251;28;98276;-62
2021/04/14 06:25:20;;;;;;;2.72;0.63;;;;;;;11.61;56.08;101871.16;4944553;28;97872;-62
2021/04/14 06:27:58;;;;;;;4.90;0.82;;;;;;;11.86;54.84;101871.66;4963688;28;98149;-59
2021/04/14 06:30:25;;;;;;;3.22;0.60;;;;;;;12.12;54.86;101864.03;4958088;28;98567;-59
2021/04/14 06:32:51;;;;;;;3.10;0.88;;;;;;;12.33;54.38;101857.88;4956734;28;128307;-63
2021/04/14 06:35:17;;;;;;;3.78;0.90;;;;;;;12.53;54.04;101858.22;4963970;28;104125;-59
2021/04/14 06:37:44;;;;;;;2.75;0.88;;;;;;;12.77;53.56;101856.16;4963481;28;99491;-60
2021/04/14 06:43:39;;;;;;;2.28;0.60;;;;;;;13.41;52.88;101852.16;4934655;28;97929;-60
2021/04/14 06:46:13;;;;;;;3.00;0.80;;;;;;;13.66;51.93;101849.72;4946239;28;97828;-63
2021/04/14 06:48:44;;;;;;;3.33;0.77;;;;;;;13.99;51.13;101856.84;4926471;28;120194;-60
2021/04/14 06:51:19;;;;;;;3.42;0.63;;;;;;;14.11;51.29;101859.41;4963460;28;116616;-60
2021/04/14 06:54:15;;;;;;;4.90;0.80;;;;;;;14.37;50.57;101855.00;4964483;28;97918;-63
2021/04/14 06:56:41;;;;;;;3.88;0.80;;;;;;;14.75;49.96;101858.56;4963213;28;97979;-60
2021/04/14 06:59:13;;;;;;;4.85;0.98;;;;;;;14.63;51.00;101857.94;4926862;28;127886;-60
2021/04/14 07:01:55;;;;;;;;;;;;;;;14.98;50.90;101852.72;4941506;28;119061;-63
2021/04/14 07:04:33;;;;;;;4.30;0.80;;;;;;;14.86;50.95;101849.41;4947796;28;114100;-60
2021/04/14 07:07:00;;;;;;;3.00;0.80;;;;;;;14.67;51.16;101856.34;4941847;28;98002;-63
2021/04/14 07:09:36;;;;;;;4.47;0.90;;;;;;;14.79;50.63;101859.69;4942618;28;98649;-60
2021/04/14 07:12:06;;;;;;;4.95;1.20;;;;;;;14.75;50.97;101852.31;4927156;28;98555;-60
2021/04/14 07:14:32;;;;;;;4.38;0.90;;;;;;;15.21;50.74;101856.91;4942107;28;109092;-60
2021/04/14 07:17:10;;;;;;;2.75;0.88;;;;;;;15.01;51.52;101848.66;4948200;28;112179;-60
2021/04/14 07:20:18;;;;;;;3.58;0.98;;;;;;;15.40;50.69;101859.97;4962375;28;98762;-60
2021/04/14 07:23:09;;;;;;;3.42;0.90;;;;;;;15.57;50.07;101840.75;4961440;28;99256;-63
2021/04/14 07:26:16;;;;;;;3.20;0.73;;;;;;;15.91;49.25;101846.53;4950041;28;98164;-63
2021/04/14 07:29:02;;;;;;;5.32;1.00;;;;;;;15.83;50.22;101849.78;4963844;28;97662;-63
2021/04/14 07:32:00;;;;;;;3.58;0.80;;;;;;;16.09;49.91;101849.84;4943242;28;98241;-60
2021/04/14 07:34:43;;;;;;;3.28;0.95;;;;;;;16.38;48.92;101844.66;4944168;28;98486;-63
2021/04/14 07:37:40;;;;;;;3.97;0.80;;;;;;;16.41;49.22;101841.41;4934371;28;97881;-60
2021/04/14 07:40:30;;;;;;;3.15;0.70;;;;;;;16.31;49.47;101839.53;4943398;28;98005;-60
2021/04/14 07:43:18;;;;;;;3.67;0.73;;;;;;;16.60;49.36;101838.94;4951092;28;98525;-63
2021/04/14 07:45:44;;;;;;;4.30;0.70;;;;;;;16.11;50.32;101848.50;4942530;28;113834;-60
2021/04/14 07:48:22;;;;;;;4.32;0.80;;;;;;;16.04;50.70;101845.22;4957272;28;128019;-60
2021/04/14 07:50:56;;;;;;;3.67;0.82;;;;;;;15.98;51.06;101846.28;4950891;28;97948;-60
2021/04/14 07:53:29;;;;;;;3.55;0.68;;;;;;;15.68;51.89;101842.44;4944325;28;98532;-60
2021/04/14 07:56:09;;;;;;;4.47;0.73;;;;;;;16.35;50.27;101842.50;4947667;27;98330;-63
2021/04/14 07:58:39;;;;;;;5.05;0.90;;;;;;;16.72;49.74;101831.28;4963560;28;98105;-60
2021/04/14 08:01:15;;;;;;;4.68;1.10;;;;;;;16.21;50.56;101839.50;4963162;28;97847;-63
2021/04/14 08:03:41;;;;;;;4.70;0.80;;;;;;;16.73;49.67;101835.66;4961632;28;99982;-60
2021/04/14 08:06:23;;;;;;;6.43;1.13;;;;;;;16.82;49.46;101825.88;4943875;28;98388;-63
2021/04/14 08:08:50;;;;;;;4.85;0.90;;;;;;;16.36;50.60;101834.06;4943348;28;110372;-60
2021/04/14 08:11:30;;;;;;;4.35;0.90;;;;;;;16.39;50.90;101836.25;4925139;28;97860;-63
2021/04/14 08:14:31;;;;;;;3.83;0.80;;;;;;;17.74;47.59;101825.44;4941219;28;98672;-60
2021/04/14 08:17:02;;;;;;;4.07;0.85;;;;;;;18.52;45.53;101830.03;4940916;28;97894;-60
2021/04/14 08:19:33;;;;;;;3.35;0.80;;;;;;;18.08;46.26;101832.88;4943352;28;97908;-60
2021/04/14 08:22:27;;;;;;;3.92;0.98;;;;;;;18.57;45.29;101832.69;4960877;28;104610;-63
2021/04/14 08:25:05;;;;;;;3.33;0.70;;;;;;;18.61;45.47;101828.28;4961872;28;99612;-60
2021/04/14 08:27:32;;;;;;;3.10;0.70;;;;;;;18.16;46.89;101835.00;4943050;28;98588;-60
2021/04/14 08:30:13;;;;;;;4.65;0.77;;;;;;;18.37;46.41;101828.25;4942220;28;97726;-60
2021/04/14 08:32:56;;;;;;;3.70;0.75;;;;;;;19.75;42.97;101821.19;4945641;28;98116;-60
2021/04/14 08:35:41;;;;;;;3.40;0.80;;;;;;;19.92;42.82;101825.31;4943711;28;112953;-61
2021/04/14 08:38:15;;;;;;;3.42;0.93;;;;;;;21.65;39.90;101822.00;4945861;28;98341;-64
2021/04/14 08:40:53;;;;;;;3.75;1.00;;;;;;;21.96;39.82;101819.34;4944041;28;98937;-64
2021/04/14 08:43:41;;;;;;;2.47;0.80;;;;;;;21.28;41.29;101826.66;4947037;28;105109;-64
2021/04/14 08:46:23;;;;;;;3.10;0.80;;;;;;;23.20;37.88;101815.00;4928306;28;97927;-61
2021/04/14 08:49:05;;;;;;;4.13;0.90;;;;;;;24.52;36.01;101826.44;4945889;28;102084;-61
2021/04/14 08:51:43;;;;;;;3.13;0.70;;;;;;;25.20;35.33;101835.59;4930312;28;98075;-64
2021/04/14 08:54:15;;;;;;;4.22;0.80;;;;;;;26.67;33.28;101830.69;4944494;28;97974;-61
2021/04/14 08:56:41;;;;;;;2.97;0.63;;;;;;;27.90;31.96;101838.84;4934042;28;98229;-62
2021/04/14 08:59:10;;;;;;;3.00;0.70;;;;;;;27.57;32.43;101844.59;4945543;28;98505;-62
2021/04/14 09:01:36;;;;;;;2.08;0.50;;;;;;;27.40;32.75;101835.41;4953378;28;98086;-62
2021/04/14 09:04:02;;;;;;;4.45;0.80;;;;;;;25.03;36.21;101854.94;4959843;28;110847;-59
2021/04/14 09:06:30;;;;;;;2.80;0.57;;;;;;;23.50;37.70;101847.09;4961299;28;119333;-61
2021/04/14 09:08:57;;;;;;;5.07;0.70;;;;;;;22.71;38.84;101845.19;4947707;28;98253;-61
2021/04/14 09:11:30;;;;;;;4.47;0.70;;;;;;;23.02;38.29;101834.19;4949348;28;98296;-58
2021/04/14 09:14:06;;;;;;;2.42;0.70;;;;;;;25.61;34.15;101822.94;4944202;28;97996;-58
2021/04/14 09:16:38;;;;;;;2.58;0.73;;;;;;;26.66;33.25;101818.03;4929359;28;98348;-62
2021/04/14 09:19:22;;;;;;;2.63;0.55;;;;;;;27.32;32.61;101821.72;4927540;28;98230;-59
2021/04/14 09:21:51;;;;;;;2.78;0.75;;;;;;;28.18;31.77;101822.22;4943630;28;98383;-62
2021/04/14 09:24:30;;;;;;;3.47;0.60;;;;;;;29.77;29.83;101817.28;4950086;28;97939;-62
2021/04/14 09:26:58;;;;;;;2.25;0.50;;;;;;;29.35;30.07;101807.66;4944036;28;98194;-62
2021/04/14 09:29:45;;;;;;;2.13;0.57;;;;;;;30.09;29.12;101817.91;4927829;28;98862;-62
2021/04/14 09:32:13;;;;;;;3.08;0.52;;;;;;;28.80;30.65;101826.19;4929000;28;118369;-62
2021/04/14 09:34:49;;;;;;;2.45;0.60;;;;;;;31.25;27.58;101805.53;4946207;28;97999;-62
2021/04/14 09:37:17;;;;;;;2.72;0.50;;;;;;;30.30;28.59;101803.63;4947647;28;103709;-62
2021/04/14 09:39:48;;;;;;;3.20;0.50;;;;;;;28.04;31.17;101819.88;4959044;28;98553;-62
2021/04/14 09:42:23;;;;;;;2.28;0.50;;;;;;;26.18;33.38;101815.97;4956849;28;98475;-62
2021/04/14 09:45:16;;;;;;;3.17;0.47;;;;;;;24.85;35.55;101818.38;4944443;28;98011;-59
2021/04/14 09:47:43;;;;;;;2.92;0.50;;;;;;;26.96;31.85;101801.22;4945663;28;98860;-59
2021/04/14 09:50:29;;;;;;;3.80;0.60;;;;;;;28.51;29.41;101788.66;4944783;28;99043;-59
2021/04/14 09:53:19;;;;;;;2.63;0.40;;;;;;;25.38;33.99;101805.91;4943785;28;98062;-58
2021/04/14 09:56:18;;;;;;;2.30;0.60;;;;;;;24.34;34.89;101803.63;4927512;28;97914;-58
2021/04/14 09:59:28;;;;;;;1.98;0.40;;;;;;;27.96;30.21;101787.59;4945339;28;98689;-59
2021/04/14 10:02:02;;;;;;;2.20;0.47;;;;;;;30.16;27.07;101775.59;4927747;28;115887;-62
2021/04/14 10:04:28;;;;;;;2.03;0.47;;;;;;;31.67;25.67;101780.22;4943427;28;98128;-59
2021/04/14 10:07:15;;;;;;;3.53;0.60;;;;;;;32.96;24.61;101778.63;4926083;28;111295;-59
2021/04/14 10:09:41;;;;;;;2.17;0.45;;;;;;;33.77;23.23;101785.78;4928908;28;98504;-60
2021/04/14 10:12:18;;;;;;;2.08;0.40;;;;;;;34.52;23.15;101769.13;4958708;28;118372;-59
2021/04/14 10:14:53;;;;;;;3.20;0.40;;;;;;;33.19;24.13;101770.78;4944456;28;98321;-59
2021/04/14 10:17:21;;;;;;;2.33;0.25;;;;;;;32.75;24.58;101768.91;4945817;28;97919;-59
2021/04/14 10:19:53;;;;;;;1.88;0.38;;;;;;;29.69;28.36;101774.69;4944364;28;115463;-62
2021/04/14 10:22:24;;;;;;;2.92;0.30;;;;;;;27.85;30.25;101767.09;4945900;28;98237;-59
2021/04/14 10:25:22;;;;;;;2.17;0.43;;;;;;;26.88;31.81;101769.78;4958261;28;99807;-61
2021/04/14 10:28:03;;;;;;;1.80;0.30;;;;;;;25.36;34.17;101766.81;4963268;28;98040;-62
2021/04/14 10:30:31;;;;;;;1.85;0.30;;;;;;;26.09;33.13;101755.25;4947338;28;98502;-62
2021/04/14 10:33:17;;;;;;;2.13;0.30;;;;;;;24.61;35.51;101761.09;4946778;28;98437;-61
2021/04/14 10:35:43;;;;;;;2.60;0.40;;;;;;;25.16;34.29;101746.38;4960428;28;98463;-58
2021/04/14 10:38:09;;;;;;;2.17;0.40;;;;;;;26.08;32.41;101741.81;4963960;28;97785;-58
2021/04/14 10:40:38;;;;;;;2.63;0.50;;;;;;;26.27;31.70;101736.53;4962847;28;127292;-58
2021/04/14 10:43:19;;;;;;;3.42;0.32;;;;;;;25.77;33.65;101734.78;4964001;28;98335;-59
2021/04/14 10:46:14;;;;;;;2.93;0.30;;;;;;;24.78;35.25;101742.84;4963509;28;98395;-61
2021/04/14 10:48:45;;;;;;;1.90;0.30;;;;;;;23.89;36.78;101739.91;4949932;28;98228;-61
2021/04/14 10:51:23;;;;;;;3.50;0.40;;;;;;;23.42;37.59;101743.34;4961416;28;103429;-59
2021/04/14 10:53:56;;;;;;;2.78;0.40;;;;;;;23.99;36.35;101734.06;4964065;28;111597;-61
2021/04/14 10:56:30;;;;;;;2.17;0.30;;;;;;;26.01;33.01;101719.47;4944999;28;107905;-58
2021/04/14 10:58:56;;;;;;;2.70;0.30;;;;;;;27.46;30.13;101716.16;4963967;28;97682;-59
2021/04/14 11:01:45;;;;;;;3.10;0.40;;;;;;;25.89;31.92;101734.03;4942816;28;107597;-61
2021/04/14 11:04:36;;;;;;;2.92;0.40;;;;;;;24.46;35.60;101732.16;4941515;28;98811;-62
2021/04/14 11:07:08;;;;;;;2.00;0.30;;;;;;;23.44;36.75;101740.28;4924937;28;98421;-58
2021/04/14 11:09:40;;;;;;;;;;;;;;;23.22;36.60;101739.28;4942646;28;97995;-61
2021/04/14 11:12:10;;;;;;;2.50;0.30;;;;;;;22.52;37.69;101738.31;4949126;28;98695;-61
2021/04/14 11:14:41;;;;;;;2.40;0.40;;;;;;;23.13;36.65;101727.47;4941257;28;97995;-58
2021/04/14 11:17:08;;;;;;;3.13;0.40;;;;;;;24.65;34.26;101715.19;4943751;28;98954;-61
2021/04/14 11:19:35;;;;;;;1.55;0.30;;;;;;;25.93;32.60;101710.13;4941363;28;101200;-62
2021/04/14 11:22:09;;;;;;;3.00;0.30;;;;;;;27.03;31.55;101710.13;4942907;28;97705;-62
2021/04/14 11:24:44;;;;;;;1.85;0.50;;;;;;;27.94;30.25;101711.53;4943309;28;98645;-58
2021/04/14 11:27:25;;;;;;;1.95;0.30;;;;;;;27.57;30.02;101723.59;4943483;28;98232;-58
2021/04/14 11:29:52;;;;;;;2.03;0.30;;;;;;;26.99;31.16;101716.72;4941851;28;100128;-62
2021/04/14 11:32:22;;;;;;;1.50;0.30;;;;;;;27.68;30.29;101715.59;4951166;28;98986;-59
2021/04/14 11:35:04;;;;;;;2.38;0.40;;;;;;;28.19;30.07;101712.19;4960836;28;98705;-62
2021/04/14 11:37:36;;;;;;;2.25;0.30;;;;;;;28.15;30.39;101703.78;4959615;28;112934;-59
2021/04/14 11:40:26;;;;;;;2.03;0.30;;;;;;;28.65;30.61;101704.19;4963132;28;97827;-62
2021/04/14 11:42:58;;;;;;;1.92;0.40;;;;;;;28.52;30.30;101704.31;4956263;28;99451;-59
2021/04/14 11:45:24;;;;;;;1.77;0.30;;;;;;;27.43;32.53;101698.25;4940806;28;107082;-62